createdAt,value
2019-02-17T00:01:20.868Z,70.44
2019-02-17T00:03:50.957Z,70.59
2019-02-17T00:06:22.155Z,70.62
2019-02-17T00:08:52.242Z,70.71
2019-02-17T00:11:22.393Z,70.84
2019-02-17T00:13:52.582Z,71.11
2019-02-17T00:16:23.342Z,71.08
2019-02-17T00:18:53.446Z,70.95
2019-02-17T00:21:23.584Z,71.26
2019-02-17T00:23:54.771Z,71.43
2019-02-17T00:26:24.884Z,71.31
2019-02-17T00:28:59.475Z,71.32
2019-02-17T00:31:26.777Z,71.21
2019-02-17T00:33:56.946Z,71.29
2019-02-17T00:36:27.205Z,71.31
2019-02-17T00:38:57.313Z,71.60
2019-02-17T00:41:27.411Z,71.54
2019-02-17T00:43:57.511Z,71.56
2019-02-17T00:46:27.783Z,71.54
2019-02-17T00:48:57.887Z,71.56
2019-02-17T00:51:27.995Z,71.71
2019-02-17T00:53:58.097Z,71.62
2019-02-17T00:56:28.216Z,71.84
2019-02-17T00:58:58.349Z,71.92
2019-02-17T01:01:29.229Z,71.96
2019-02-17T01:03:59.338Z,72.06
2019-02-17T01:06:29.443Z,72.06
2019-02-17T01:08:59.553Z,71.92
2019-02-17T01:11:29.696Z,71.93
2019-02-17T01:13:59.810Z,71.80
2019-02-17T01:16:29.922Z,71.87
2019-02-17T01:19:00.007Z,71.81
2019-02-17T01:21:30.159Z,71.70
2019-02-17T01:24:00.286Z,71.50
2019-02-17T01:26:30.412Z,71.59
2019-02-17T01:29:00.518Z,71.45
2019-02-17T01:31:30.623Z,71.35
2019-02-17T01:34:09.293Z,71.35
2019-02-17T01:36:39.381Z,71.39
2019-02-17T01:39:09.496Z,71.25
2019-02-17T01:41:39.632Z,71.19
2019-02-17T01:44:10.584Z,71.18
2019-02-17T01:46:40.805Z,71.34
2019-02-17T01:49:10.896Z,71.17
2019-02-17T01:51:41.019Z,71.28
2019-02-17T01:54:11.213Z,71.61
2019-02-17T01:56:42.305Z,71.75
2019-02-17T01:59:12.440Z,71.79
2019-02-17T02:01:42.562Z,71.70
2019-02-17T02:04:12.694Z,71.83
2019-02-17T02:06:43.062Z,71.95
2019-02-17T02:09:13.155Z,72.10
2019-02-17T02:11:43.256Z,72.10
2019-02-17T02:14:13.404Z,71.82
2019-02-17T02:16:43.565Z,71.71
2019-02-17T02:19:15.768Z,71.42
2019-02-17T02:21:45.866Z,71.25
2019-02-17T02:24:18.260Z,71.30
2019-02-17T02:26:49.251Z,71.10
2019-02-17T02:29:19.361Z,71.12
2019-02-17T02:31:49.468Z,71.08
2019-02-17T02:34:19.569Z,71.17
2019-02-17T02:36:49.672Z,71.04
2019-02-17T02:39:19.768Z,70.80
2019-02-17T02:41:49.857Z,70.92
2019-02-17T02:44:19.971Z,70.95
2019-02-17T02:46:50.092Z,70.91
2019-02-17T02:49:20.199Z,71.05
2019-02-17T02:51:50.327Z,71.05
2019-02-17T02:54:20.449Z,71.04
2019-02-17T02:56:50.602Z,71.21
2019-02-17T02:59:20.714Z,71.37
2019-02-17T03:01:50.892Z,71.38
2019-02-17T03:04:21.032Z,71.08
2019-02-17T03:06:54.841Z,71.20
2019-02-17T03:09:24.947Z,71.49
2019-02-17T03:11:55.071Z,71.31
2019-02-17T03:14:25.245Z,71.01
2019-02-17T03:16:55.341Z,70.99
2019-02-17T03:19:25.510Z,70.71
2019-02-17T03:21:55.651Z,70.84
2019-02-17T03:24:25.766Z,70.79
2019-02-17T03:26:55.897Z,70.71
2019-02-17T03:29:25.995Z,70.71
2019-02-17T03:31:56.118Z,70.38
2019-02-17T03:34:26.205Z,70.62
2019-02-17T03:36:56.322Z,70.52
2019-02-17T03:39:26.427Z,70.42
2019-02-17T03:41:56.569Z,70.43
2019-02-17T03:44:26.684Z,70.34
2019-02-17T03:46:56.807Z,70.31
2019-02-17T03:49:26.903Z,70.13
2019-02-17T03:51:57.010Z,70.03
2019-02-17T03:54:27.119Z,69.96
2019-02-17T03:56:57.252Z,69.84
2019-02-17T03:59:27.381Z,69.80
2019-02-17T04:01:57.527Z,69.52
2019-02-17T04:04:27.641Z,69.39
2019-02-17T04:06:57.761Z,69.38
2019-02-17T04:09:27.873Z,69.23
2019-02-17T04:11:58.112Z,69.28
2019-02-17T04:14:28.215Z,69.37
2019-02-17T04:16:58.340Z,69.24
2019-02-17T04:19:28.434Z,69.22
2019-02-17T04:21:58.752Z,69.30
2019-02-17T04:24:28.858Z,69.37
2019-02-17T04:26:59.000Z,69.31
2019-02-17T04:29:29.112Z,69.22
2019-02-17T04:31:59.252Z,69.12
2019-02-17T04:34:29.338Z,68.95
2019-02-17T04:36:59.461Z,69.10
2019-02-17T04:39:29.573Z,68.97
2019-02-17T04:41:59.748Z,68.96
2019-02-17T04:44:29.867Z,68.94
2019-02-17T04:46:59.987Z,68.94
2019-02-17T04:49:30.102Z,69.02
2019-02-17T04:52:00.214Z,68.97
2019-02-17T04:54:30.308Z,69.07
2019-02-17T04:57:00.412Z,69.01
2019-02-17T04:59:31.496Z,68.99
2019-02-17T05:02:01.608Z,68.99
2019-02-17T05:04:32.111Z,68.83
2019-02-17T05:07:02.252Z,68.90
2019-02-17T05:09:32.354Z,69.04
2019-02-17T05:12:02.497Z,68.90
2019-02-17T05:14:32.617Z,69.19
2019-02-17T05:17:03.367Z,69.04
2019-02-17T05:19:33.493Z,69.15
2019-02-17T05:22:03.657Z,69.12
2019-02-17T05:24:33.768Z,68.95
2019-02-17T05:27:03.941Z,68.64
2019-02-17T05:29:34.034Z,69.11
2019-02-17T05:32:04.159Z,68.87
2019-02-17T05:34:34.245Z,68.71
2019-02-17T05:37:04.401Z,68.72
2019-02-17T05:39:34.517Z,68.51
2019-02-17T05:42:04.632Z,68.27
2019-02-17T05:44:34.742Z,68.26
2019-02-17T05:47:04.889Z,68.04
2019-02-17T05:49:34.994Z,67.96
2019-02-17T05:52:06.258Z,67.92
2019-02-17T05:54:36.377Z,67.87
2019-02-17T05:57:06.496Z,67.99
2019-02-17T05:59:37.569Z,67.82
2019-02-17T06:02:07.677Z,67.85
2019-02-17T06:04:37.795Z,67.85
2019-02-17T06:07:07.917Z,67.78
2019-02-17T06:09:38.101Z,67.84
2019-02-17T06:12:08.242Z,67.87
2019-02-17T06:14:38.370Z,68.29
2019-02-17T06:17:08.518Z,68.75
2019-02-17T06:19:38.621Z,69.77
2019-02-17T06:22:08.763Z,70.33
2019-02-17T06:24:38.969Z,70.36
2019-02-17T06:27:09.078Z,70.38
2019-02-17T06:29:39.196Z,70.19
2019-02-17T06:32:09.362Z,70.58
2019-02-17T06:34:39.474Z,71.22
2019-02-17T06:37:09.580Z,70.98
2019-02-17T06:39:39.737Z,70.78
2019-02-17T06:42:09.844Z,70.65
2019-02-17T06:44:40.014Z,70.48
2019-02-17T06:47:19.350Z,69.60
2019-02-17T06:49:49.452Z,69.22
2019-02-17T06:52:19.561Z,69.15
2019-02-17T06:55:01.974Z,69.38
2019-02-17T06:57:36.252Z,69.54
2019-02-17T07:00:13.870Z,69.49
2019-02-17T07:02:43.960Z,69.38
2019-02-17T07:05:39.116Z,68.72
2019-02-17T07:08:10.125Z,68.52
2019-02-17T07:10:40.236Z,68.90
2019-02-17T07:13:10.283Z,69.53
2019-02-17T07:15:40.378Z,69.91
2019-02-17T07:18:10.479Z,70.62
2019-02-17T07:20:40.583Z,70.64
2019-02-17T07:23:10.782Z,69.84
2019-02-17T07:25:40.869Z,69.82
2019-02-17T07:28:11.720Z,69.18
2019-02-17T07:30:41.856Z,68.80
2019-02-17T07:33:12.059Z,68.67
2019-02-17T07:35:42.171Z,68.70
2019-02-17T07:38:12.299Z,68.74
2019-02-17T07:40:42.391Z,68.92
2019-02-17T07:43:12.523Z,69.05
2019-02-17T07:45:42.630Z,68.51
2019-02-17T07:48:12.752Z,68.10
2019-02-17T07:50:42.927Z,67.91
2019-02-17T07:53:13.726Z,68.07
2019-02-17T07:55:43.813Z,67.67
2019-02-17T07:58:13.913Z,67.29
2019-02-17T08:00:44.031Z,67.00
2019-02-17T08:03:14.276Z,67.08
2019-02-17T08:05:44.387Z,67.09
2019-02-17T08:08:14.511Z,67.14
2019-02-17T08:10:44.644Z,67.03
2019-02-17T08:13:14.756Z,66.99
2019-02-17T08:15:44.863Z,66.96
2019-02-17T08:18:15.024Z,66.94
2019-02-17T08:20:45.142Z,66.46
2019-02-17T08:23:15.265Z,66.17
2019-02-17T08:25:45.756Z,65.76
2019-02-17T08:28:15.966Z,65.56
2019-02-17T08:30:46.080Z,65.79
2019-02-17T08:33:16.193Z,65.22
2019-02-17T08:35:46.314Z,65.15
2019-02-17T08:38:16.455Z,65.00
2019-02-17T08:40:46.577Z,64.85
2019-02-17T08:43:16.658Z,63.63
2019-02-17T08:45:47.014Z,63.64
2019-02-17T08:48:17.190Z,63.62
2019-02-17T08:50:47.284Z,63.54
2019-02-17T08:53:17.402Z,63.81
2019-02-17T08:55:47.502Z,63.57
2019-02-17T08:58:17.622Z,62.89
2019-02-17T09:00:48.006Z,62.70
2019-02-17T09:03:18.211Z,62.32
2019-02-17T09:05:48.329Z,62.47
2019-02-17T09:08:19.372Z,61.84
2019-02-17T09:10:49.522Z,61.83
2019-02-17T09:13:19.601Z,61.72
2019-02-17T09:15:49.700Z,61.02
2019-02-17T09:18:19.801Z,60.63
2019-02-17T09:20:49.916Z,60.80
2019-02-17T09:23:20.065Z,60.92
2019-02-17T09:25:50.163Z,60.84
2019-02-17T09:28:20.301Z,60.73
2019-02-17T09:30:50.466Z,60.45
2019-02-17T09:33:20.582Z,59.94
2019-02-17T09:35:50.680Z,59.68
2019-02-17T09:38:20.813Z,59.96
2019-02-17T09:40:50.955Z,59.31
2019-02-17T09:43:21.066Z,58.91
2019-02-17T09:45:51.173Z,58.57
2019-02-17T09:48:21.306Z,58.05
2019-02-17T09:50:51.413Z,58.07
2019-02-17T09:53:21.508Z,58.38
2019-02-17T09:55:51.612Z,58.08
2019-02-17T09:58:21.740Z,57.70
2019-02-17T10:00:51.944Z,57.79
2019-02-17T10:03:22.056Z,57.19
2019-02-17T10:05:52.172Z,57.56
2019-02-17T10:08:22.297Z,57.51
2019-02-17T10:10:52.443Z,57.19
2019-02-17T10:13:22.572Z,57.21
2019-02-17T10:15:52.690Z,56.98
2019-02-17T10:18:22.797Z,57.03
2019-02-17T10:20:52.968Z,56.97
2019-02-17T10:23:23.135Z,56.58
2019-02-17T10:25:53.243Z,56.72
2019-02-17T10:28:23.358Z,56.93
2019-02-17T10:30:53.467Z,56.95
2019-02-17T10:33:23.608Z,57.15
2019-02-17T10:35:53.723Z,57.29
2019-02-17T10:38:25.008Z,57.28
2019-02-17T10:40:55.187Z,57.23
2019-02-17T10:43:25.301Z,57.31
2019-02-17T10:45:55.403Z,57.54
2019-02-17T10:48:25.527Z,57.96
2019-02-17T10:50:55.649Z,57.79
2019-02-17T10:53:25.760Z,57.41
2019-02-17T10:55:55.883Z,57.11
2019-02-17T10:58:26.078Z,57.32
2019-02-17T11:00:56.223Z,57.56
2019-02-17T11:03:26.443Z,57.32
2019-02-17T11:05:56.621Z,56.98
2019-02-17T11:08:26.666Z,56.64
2019-02-17T11:10:56.848Z,56.62
2019-02-17T11:13:26.957Z,57.82
2019-02-17T11:15:57.049Z,61.22
2019-02-17T11:18:27.193Z,61.67
2019-02-17T11:20:57.288Z,60.47
2019-02-17T11:23:27.481Z,61.27
2019-02-17T11:25:57.565Z,63.47
2019-02-17T11:28:27.675Z,61.31
2019-02-17T11:30:57.795Z,59.53
2019-02-17T11:33:27.947Z,58.90
2019-02-17T11:35:58.432Z,58.93
2019-02-17T11:38:28.556Z,59.21
2019-02-17T11:40:58.754Z,59.26
2019-02-17T11:43:28.880Z,59.23
2019-02-17T11:45:58.985Z,58.84
2019-02-17T11:48:29.102Z,59.19
2019-02-17T11:50:59.213Z,59.31
2019-02-17T11:53:29.337Z,59.17
2019-02-17T11:55:59.461Z,59.50
2019-02-17T11:58:29.969Z,59.39
2019-02-17T12:01:00.091Z,59.17
2019-02-17T12:03:30.320Z,58.74
2019-02-17T12:06:00.460Z,58.37
2019-02-17T12:08:30.580Z,58.53
2019-02-17T12:11:00.676Z,58.54
2019-02-17T12:13:30.803Z,58.67
2019-02-17T12:16:00.910Z,58.66
2019-02-17T12:18:31.045Z,58.69
2019-02-17T12:21:11.041Z,58.87
2019-02-17T12:23:44.400Z,58.93
2019-02-17T12:26:28.414Z,59.06
2019-02-17T12:29:03.145Z,58.99
2019-02-17T12:31:36.589Z,59.08
2019-02-17T12:34:06.713Z,59.19
2019-02-17T12:36:36.815Z,59.31
2019-02-17T12:39:09.451Z,59.13
2019-02-17T12:41:39.563Z,59.59
2019-02-17T12:44:09.669Z,59.61
2019-02-17T12:46:39.781Z,59.61
2019-02-17T12:49:09.896Z,59.61
2019-02-17T12:51:39.996Z,60.01
2019-02-17T12:54:10.107Z,59.94
2019-02-17T12:56:41.219Z,60.01
2019-02-17T12:59:11.324Z,60.26
2019-02-17T13:01:41.412Z,60.52
2019-02-17T13:04:11.509Z,60.76
2019-02-17T13:06:41.624Z,60.68
2019-02-17T13:09:11.726Z,61.33
2019-02-17T13:11:41.821Z,61.77
2019-02-17T13:14:11.935Z,62.29
2019-02-17T13:16:42.019Z,62.87
2019-02-17T13:19:12.982Z,62.72
2019-02-17T13:21:43.086Z,62.63
2019-02-17T13:24:13.213Z,62.75
2019-02-17T13:26:43.311Z,63.33
2019-02-17T13:29:13.441Z,63.53
2019-02-17T13:31:43.521Z,64.02
2019-02-17T13:34:14.808Z,64.21
2019-02-17T13:36:44.920Z,64.30
2019-02-17T13:39:16.098Z,64.35
2019-02-17T13:41:46.206Z,64.15
2019-02-17T13:44:16.312Z,64.26
2019-02-17T13:46:46.408Z,64.40
2019-02-17T13:49:16.504Z,64.69
2019-02-17T13:51:46.607Z,64.71
2019-02-17T13:54:16.711Z,64.65
2019-02-17T13:56:46.919Z,64.91
2019-02-17T13:59:17.017Z,64.81
2019-02-17T14:01:47.119Z,64.79
2019-02-17T14:04:17.215Z,64.88
2019-02-17T14:06:47.325Z,65.16
2019-02-17T14:09:17.442Z,65.17
2019-02-17T14:11:47.556Z,65.24
2019-02-17T14:14:17.660Z,65.41
2019-02-17T14:16:48.596Z,65.69
2019-02-17T14:19:18.696Z,65.86
2019-02-17T14:21:48.809Z,65.92
2019-02-17T14:24:19.720Z,67.14
2019-02-17T14:26:49.849Z,67.76
2019-02-17T14:29:19.984Z,67.57
2019-02-17T14:31:50.087Z,67.21
2019-02-17T14:34:20.196Z,66.95
2019-02-17T14:36:50.298Z,66.76
2019-02-17T14:39:21.298Z,66.91
2019-02-17T14:41:51.402Z,66.69
2019-02-17T14:44:21.499Z,66.84
2019-02-17T14:46:52.591Z,66.93
2019-02-17T14:49:22.706Z,66.98
2019-02-17T14:51:52.830Z,66.84
2019-02-17T14:54:22.941Z,66.64
2019-02-17T14:56:53.035Z,66.62
2019-02-17T14:59:23.138Z,66.60
2019-02-17T15:01:53.251Z,66.52
2019-02-17T15:04:23.387Z,66.87
2019-02-17T15:06:53.509Z,66.87
2019-02-17T15:09:23.609Z,67.09
2019-02-17T15:11:53.729Z,67.03
2019-02-17T15:14:23.913Z,66.95
2019-02-17T15:16:54.043Z,66.99
2019-02-17T15:19:24.154Z,67.13
2019-02-17T15:21:54.279Z,67.15
2019-02-17T15:24:24.518Z,67.17
2019-02-17T15:26:54.633Z,67.27
2019-02-17T15:29:24.743Z,67.29
2019-02-17T15:31:54.871Z,67.53
2019-02-17T15:34:25.402Z,67.76
2019-02-17T15:36:55.519Z,67.99
2019-02-17T15:39:25.641Z,68.07
2019-02-17T15:41:55.760Z,67.87
2019-02-17T15:44:25.916Z,67.91
2019-02-17T15:46:56.015Z,67.85
2019-02-17T15:49:26.128Z,67.92
2019-02-17T15:51:56.365Z,68.06
2019-02-17T15:54:27.469Z,68.41
2019-02-17T15:56:57.629Z,68.19
2019-02-17T15:59:27.822Z,67.97
2019-02-17T16:01:57.950Z,68.26
2019-02-17T16:04:28.845Z,68.39
2019-02-17T16:06:59.206Z,69.08
2019-02-17T16:09:29.326Z,69.85
2019-02-17T16:11:59.446Z,69.42
2019-02-17T16:14:29.876Z,69.56
2019-02-17T16:16:59.991Z,69.93
2019-02-17T16:19:30.097Z,69.88
2019-02-17T16:22:00.221Z,69.68
2019-02-17T16:24:30.379Z,69.82
2019-02-17T16:27:00.510Z,69.77
2019-02-17T16:29:30.610Z,69.42
2019-02-17T16:32:00.728Z,70.20
2019-02-17T16:34:38.209Z,70.38
2019-02-17T16:37:04.163Z,70.38
2019-02-17T16:39:34.275Z,70.22
2019-02-17T16:42:05.472Z,70.58
2019-02-17T16:44:35.576Z,70.39
2019-02-17T16:47:05.704Z,70.57
2019-02-17T16:49:35.816Z,71.66
2019-02-17T16:52:06.067Z,71.63
2019-02-17T16:54:37.400Z,71.87
2019-02-17T16:57:07.519Z,72.11
2019-02-17T16:59:37.630Z,72.41
2019-02-17T17:02:07.736Z,71.59
2019-02-17T17:04:47.893Z,71.44
2019-02-17T17:07:09.850Z,71.61
2019-02-17T17:09:39.958Z,71.65
2019-02-17T17:12:10.080Z,72.25
2019-02-17T17:14:40.202Z,71.55
2019-02-17T17:17:10.320Z,71.35
2019-02-17T17:19:40.444Z,71.08
2019-02-17T17:22:10.561Z,71.49
2019-02-17T17:24:40.708Z,72.82
2019-02-17T17:27:11.097Z,72.63
2019-02-17T17:29:41.207Z,73.36
2019-02-17T17:32:11.335Z,73.50
2019-02-17T17:34:41.462Z,73.50
2019-02-17T17:37:11.592Z,72.48
2019-02-17T17:39:41.719Z,72.26
2019-02-17T17:42:11.853Z,71.96
2019-02-17T17:44:41.970Z,72.08
2019-02-17T17:47:12.455Z,71.78
2019-02-17T17:49:42.585Z,71.73
2019-02-17T17:52:12.695Z,71.99
2019-02-17T17:54:42.826Z,71.68
2019-02-17T17:57:12.942Z,71.92
2019-02-17T17:59:43.077Z,72.46
2019-02-17T18:02:13.202Z,72.13
2019-02-17T18:04:43.428Z,72.84
2019-02-17T18:07:13.540Z,72.67
2019-02-17T18:09:44.538Z,73.87
2019-02-17T18:12:14.668Z,73.49
2019-02-17T18:14:44.777Z,74.14
2019-02-17T18:17:14.888Z,74.46
2019-02-17T18:19:45.005Z,74.22
2019-02-17T18:22:15.126Z,73.79
2019-02-17T18:24:45.276Z,73.40
2019-02-17T18:27:15.386Z,74.04
2019-02-17T18:29:45.539Z,74.14
2019-02-17T18:32:15.653Z,74.51
2019-02-17T18:34:45.788Z,74.22
2019-02-17T18:37:15.899Z,74.73
2019-02-17T18:39:46.012Z,74.43
2019-02-17T18:42:16.108Z,73.83
2019-02-17T18:44:46.229Z,73.64
2019-02-17T18:47:16.365Z,73.95
2019-02-17T18:49:46.445Z,73.93
2019-02-17T18:52:16.550Z,74.24
2019-02-17T18:54:46.660Z,74.05
2019-02-17T18:57:16.751Z,73.67
2019-02-17T18:59:47.238Z,73.87
2019-02-17T19:02:17.383Z,74.18
2019-02-17T19:04:48.532Z,73.79
2019-02-17T19:07:18.632Z,73.76
2019-02-17T19:09:48.750Z,73.54
2019-02-17T19:12:18.845Z,73.81
2019-02-17T19:14:49.500Z,74.27
2019-02-17T19:17:19.599Z,74.34
2019-02-17T19:19:49.723Z,74.46
2019-02-17T19:22:19.836Z,75.08
2019-02-17T19:24:50.075Z,74.54
2019-02-17T19:27:20.182Z,74.88
2019-02-17T19:29:50.321Z,74.66
2019-02-17T19:32:20.441Z,74.91
2019-02-17T19:34:50.546Z,74.53
2019-02-17T19:37:20.676Z,74.23
2019-02-17T19:39:50.796Z,74.15
2019-02-17T19:42:20.902Z,74.27
2019-02-17T19:44:51.034Z,74.18
2019-02-17T19:47:21.137Z,73.93
2019-02-17T19:49:51.270Z,73.79
2019-02-17T19:52:21.415Z,73.79
2019-02-17T19:54:51.558Z,73.77
2019-02-17T19:57:21.683Z,73.68
2019-02-17T19:59:51.825Z,73.68
2019-02-17T20:02:33.941Z,73.68
2019-02-17T20:05:10.679Z,73.76
2019-02-17T20:07:40.801Z,73.66
2019-02-17T20:10:10.940Z,73.66
2019-02-17T20:12:41.027Z,73.61
2019-02-17T20:15:11.175Z,73.62
2019-02-17T20:17:41.300Z,73.67
2019-02-17T20:20:12.481Z,73.74
2019-02-17T20:22:42.701Z,73.74
2019-02-17T20:25:12.877Z,73.91
2019-02-17T20:27:42.980Z,73.69
2019-02-17T20:30:13.608Z,73.61
2019-02-17T20:32:43.726Z,73.60
2019-02-17T20:35:14.809Z,73.58
2019-02-17T20:37:45.024Z,73.64
2019-02-17T20:40:15.356Z,73.81
2019-02-17T20:42:45.583Z,73.73
2019-02-17T20:45:15.724Z,73.95
2019-02-17T20:47:45.833Z,74.18
2019-02-17T20:50:15.999Z,73.79
2019-02-17T20:52:46.113Z,73.76
2019-02-17T20:55:16.275Z,73.93
2019-02-17T20:57:46.380Z,74.33
2019-02-17T21:00:16.560Z,74.25
2019-02-17T21:02:46.664Z,74.40
2019-02-17T21:05:16.998Z,74.30
2019-02-17T21:07:47.189Z,74.36
2019-02-17T21:10:17.293Z,74.01
2019-02-17T21:12:47.479Z,74.44
2019-02-17T21:15:19.023Z,74.13
2019-02-17T21:17:49.168Z,74.30
2019-02-17T21:20:19.598Z,74.57
2019-02-17T21:22:49.897Z,74.41
2019-02-17T21:25:20.128Z,74.66
2019-02-17T21:27:50.234Z,74.25
2019-02-17T21:30:20.356Z,74.21
2019-02-17T21:32:50.463Z,74.27
2019-02-17T21:35:20.583Z,74.12
2019-02-17T21:37:50.711Z,74.19
2019-02-17T21:40:20.836Z,74.22
2019-02-17T21:42:50.957Z,74.23
2019-02-17T21:45:21.046Z,74.50
2019-02-17T21:47:51.234Z,74.29
2019-02-17T21:50:21.339Z,74.37
2019-02-17T21:52:51.451Z,74.19
2019-02-17T21:55:21.595Z,74.08
2019-02-17T21:57:51.704Z,74.06
2019-02-17T22:00:21.844Z,74.06
2019-02-17T22:02:52.106Z,74.06
2019-02-17T22:05:22.232Z,74.25
2019-02-17T22:07:52.405Z,74.18
2019-02-17T22:10:22.531Z,74.20
2019-02-17T22:12:53.660Z,74.30
2019-02-17T22:15:23.757Z,74.26
2019-02-17T22:17:53.862Z,74.32
2019-02-17T22:20:24.085Z,74.39
2019-02-17T22:22:55.337Z,74.18
2019-02-17T22:25:25.415Z,74.36
2019-02-17T22:27:55.539Z,74.35
2019-02-17T22:30:25.653Z,74.11
2019-02-17T22:32:55.755Z,74.13
2019-02-17T22:35:25.863Z,73.99
2019-02-17T22:37:55.980Z,73.99
2019-02-17T22:40:26.088Z,74.06
2019-02-17T22:42:56.191Z,74.29
2019-02-17T22:45:26.315Z,74.10
2019-02-17T22:47:56.430Z,74.34
2019-02-17T22:50:27.509Z,74.26
2019-02-17T22:52:57.632Z,74.53
2019-02-17T22:55:27.737Z,74.67
2019-02-17T22:57:57.859Z,75.39
2019-02-17T23:00:40.559Z,75.72
2019-02-17T23:03:10.691Z,75.45
2019-02-17T23:05:40.784Z,75.25
2019-02-17T23:08:10.900Z,75.24
2019-02-17T23:10:41.009Z,74.90
2019-02-17T23:13:11.151Z,74.81
2019-02-17T23:15:41.278Z,74.77
2019-02-17T23:18:11.673Z,74.82
2019-02-17T23:20:41.780Z,74.77
2019-02-17T23:23:11.891Z,74.72
2019-02-17T23:25:42.010Z,74.69
2019-02-17T23:28:12.117Z,74.59
2019-02-17T23:30:42.294Z,74.54
2019-02-17T23:33:12.442Z,74.91
2019-02-17T23:35:42.567Z,74.68
2019-02-17T23:38:12.690Z,74.58
2019-02-17T23:40:42.921Z,74.60
2019-02-17T23:43:13.121Z,74.59
2019-02-17T23:45:44.648Z,74.64
2019-02-17T23:48:14.806Z,74.80
2019-02-17T23:50:44.911Z,74.97
2019-02-17T23:53:15.025Z,75.06
2019-02-17T23:55:45.145Z,74.76
2019-02-17T23:58:15.269Z,75.17
